sensor_id;sensor_type;location;lat;lon;timestamp;temperature;humidity
47791;DHT22;33547;49.044;1.156;2023-08-08T00:02:15;16.50;99.90
47791;DHT22;33547;49.044;1.156;2023-08-08T00:04:40;16.50;99.90
47791;DHT22;33547;49.044;1.156;2023-08-08T00:07:06;16.50;99.90
47791;DHT22;33547;49.044;1.156;2023-08-08T00:09:32;16.50;99.90
47791;DHT22;33547;49.044;1.156;2023-08-08T00:11:57;16.50;99.90
47791;DHT22;33547;49.044;1.156;2023-08-08T00:14:24;16.50;99.90
47791;DHT22;33547;49.044;1.156;2023-08-08T00:16:49;16.50;99.90
47791;DHT22;33547;49.044;1.156;2023-08-08T00:19:15;16.50;99.90
47791;DHT22;33547;49.044;1.156;2023-08-08T00:21:41;16.50;99.90
47791;DHT22;33547;49.044;1.156;2023-08-08T00:24:06;16.50;99.90
47791;DHT22;33547;49.044;1.156;2023-08-08T00:26:32;16.60;99.90
47791;DHT22;33547;49.044;1.156;2023-08-08T00:28:58;16.50;99.90
47791;DHT22;33547;49.044;1.156;2023-08-08T00:31:23;16.60;99.90
47791;DHT22;33547;49.044;1.156;2023-08-08T00:33:49;16.50;99.90
47791;DHT22;33547;49.044;1.156;2023-08-08T00:36:15;16.50;99.90
47791;DHT22;33547;49.044;1.156;2023-08-08T00:38:40;16.50;99.90
47791;DHT22;33547;49.044;1.156;2023-08-08T00:41:06;16.40;99.90
47791;DHT22;33547;49.044;1.156;2023-08-08T00:43:31;16.40;99.90
47791;DHT22;33547;49.044;1.156;2023-08-08T00:45:57;16.40;99.90
47791;DHT22;33547;49.044;1.156;2023-08-08T00:48:23;16.40;99.90
47791;DHT22;33547;49.044;1.156;2023-08-08T00:50:50;16.40;99.90
47791;DHT22;33547;49.044;1.156;2023-08-08T00:53:17;16.50;99.90
47791;DHT22;33547;49.044;1.156;2023-08-08T00:55:43;16.40;99.90
47791;DHT22;33547;49.044;1.156;2023-08-08T00:58:09;16.50;99.90
47791;DHT22;33547;49.044;1.156;2023-08-08T01:00:35;16.40;99.90
47791;DHT22;33547;49.044;1.156;2023-08-08T01:03:01;16.50;99.90
47791;DHT22;33547;49.044;1.156;2023-08-08T01:05:35;16.50;99.90
47791;DHT22;33547;49.044;1.156;2023-08-08T01:08:06;16.40;99.90
47791;DHT22;33547;49.044;1.156;2023-08-08T01:10:36;16.40;99.90
47791;DHT22;33547;49.044;1.156;2023-08-08T01:13:05;16.40;99.90
47791;DHT22;33547;49.044;1.156;2023-08-08T01:15:33;16.30;99.90
47791;DHT22;33547;49.044;1.156;2023-08-08T01:18:03;16.40;99.90
47791;DHT22;33547;49.044;1.156;2023-08-08T01:20:30;16.30;99.90
47791;DHT22;33547;49.044;1.156;2023-08-08T01:26:08;16.30;99.90
47791;DHT22;33547;49.044;1.156;2023-08-08T01:28:34;16.40;99.90
47791;DHT22;33547;49.044;1.156;2023-08-08T01:31:00;16.30;99.90
47791;DHT22;33547;49.044;1.156;2023-08-08T01:33:25;16.30;99.90
47791;DHT22;33547;49.044;1.156;2023-08-08T01:35:55;16.30;99.90
47791;DHT22;33547;49.044;1.156;2023-08-08T01:38:28;16.20;99.90
47791;DHT22;33547;49.044;1.156;2023-08-08T01:40:57;16.20;99.90
47791;DHT22;33547;49.044;1.156;2023-08-08T01:43:25;16.30;99.90
47791;DHT22;33547;49.044;1.156;2023-08-08T01:45:51;16.30;99.90
47791;DHT22;33547;49.044;1.156;2023-08-08T01:48:17;16.30;99.90
47791;DHT22;33547;49.044;1.156;2023-08-08T01:50:43;16.30;99.90
47791;DHT22;33547;49.044;1.156;2023-08-08T01:53:09;16.30;99.90
47791;DHT22;33547;49.044;1.156;2023-08-08T01:55:35;16.40;99.90
47791;DHT22;33547;49.044;1.156;2023-08-08T01:58:00;16.30;99.90
47791;DHT22;33547;49.044;1.156;2023-08-08T02:00:26;16.30;99.90
47791;DHT22;33547;49.044;1.156;2023-08-08T02:02:52;16.30;99.90
47791;DHT22;33547;49.044;1.156;2023-08-08T02:05:18;16.30;99.90
47791;DHT22;33547;49.044;1.156;2023-08-08T02:07:43;16.40;99.90
47791;DHT22;33547;49.044;1.156;2023-08-08T02:10:09;16.40;99.90
47791;DHT22;33547;49.044;1.156;2023-08-08T02:12:35;16.40;99.90
47791;DHT22;33547;49.044;1.156;2023-08-08T02:15:00;16.50;99.90
47791;DHT22;33547;49.044;1.156;2023-08-08T02:17:26;16.40;99.90
47791;DHT22;33547;49.044;1.156;2023-08-08T02:19:52;16.40;99.90
47791;DHT22;33547;49.044;1.156;2023-08-08T02:22:18;16.30;99.90
47791;DHT22;33547;49.044;1.156;2023-08-08T02:24:44;16.20;99.90
47791;DHT22;33547;49.044;1.156;2023-08-08T02:27:11;16.10;99.90
47791;DHT22;33547;49.044;1.156;2023-08-08T02:29:36;16.10;99.90
47791;DHT22;33547;49.044;1.156;2023-08-08T02:32:02;16.10;99.90
47791;DHT22;33547;49.044;1.156;2023-08-08T02:34:28;16.00;99.90
47791;DHT22;33547;49.044;1.156;2023-08-08T02:36:53;16.00;99.90
47791;DHT22;33547;49.044;1.156;2023-08-08T02:39:19;16.10;99.90
47791;DHT22;33547;49.044;1.156;2023-08-08T02:41:44;16.10;99.90
47791;DHT22;33547;49.044;1.156;2023-08-08T02:44:10;16.10;99.90
47791;DHT22;33547;49.044;1.156;2023-08-08T02:46:36;16.10;99.90
47791;DHT22;33547;49.044;1.156;2023-08-08T02:49:04;16.00;99.90
47791;DHT22;33547;49.044;1.156;2023-08-08T02:51:30;15.90;99.90
47791;DHT22;33547;49.044;1.156;2023-08-08T02:53:55;15.90;99.90
47791;DHT22;33547;49.044;1.156;2023-08-08T02:56:21;15.80;99.90
47791;DHT22;33547;49.044;1.156;2023-08-08T02:58:47;15.80;99.90
47791;DHT22;33547;49.044;1.156;2023-08-08T03:01:12;15.80;99.90
47791;DHT22;33547;49.044;1.156;2023-08-08T03:03:40;15.70;99.90
47791;DHT22;33547;49.044;1.156;2023-08-08T03:06:06;15.70;99.90
47791;DHT22;33547;49.044;1.156;2023-08-08T03:08:31;15.70;99.90
47791;DHT22;33547;49.044;1.156;2023-08-08T03:10:57;15.60;99.90
47791;DHT22;33547;49.044;1.156;2023-08-08T03:13:23;15.60;99.90
47791;DHT22;33547;49.044;1.156;2023-08-08T03:15:48;15.50;99.90
47791;DHT22;33547;49.044;1.156;2023-08-08T03:18:14;15.40;99.90
47791;DHT22;33547;49.044;1.156;2023-08-08T03:20:40;15.40;99.90
47791;DHT22;33547;49.044;1.156;2023-08-08T03:23:05;15.20;99.90
47791;DHT22;33547;49.044;1.156;2023-08-08T03:25:31;15.20;99.90
47791;DHT22;33547;49.044;1.156;2023-08-08T03:27:56;15.30;99.90
47791;DHT22;33547;49.044;1.156;2023-08-08T03:30:22;15.30;99.90
47791;DHT22;33547;49.044;1.156;2023-08-08T03:32:48;15.30;99.90
47791;DHT22;33547;49.044;1.156;2023-08-08T03:35:13;15.30;99.90
47791;DHT22;33547;49.044;1.156;2023-08-08T03:37:40;15.30;99.90
47791;DHT22;33547;49.044;1.156;2023-08-08T03:40:07;15.40;99.90
47791;DHT22;33547;49.044;1.156;2023-08-08T03:42:33;15.40;99.90
47791;DHT22;33547;49.044;1.156;2023-08-08T03:44:59;15.40;99.90
47791;DHT22;33547;49.044;1.156;2023-08-08T03:47:25;15.50;99.90
47791;DHT22;33547;49.044;1.156;2023-08-08T03:49:51;15.50;99.90
47791;DHT22;33547;49.044;1.156;2023-08-08T03:52:16;15.50;99.90
47791;DHT22;33547;49.044;1.156;2023-08-08T03:54:43;15.50;99.90
47791;DHT22;33547;49.044;1.156;2023-08-08T03:57:08;15.40;99.90
47791;DHT22;33547;49.044;1.156;2023-08-08T03:59:34;15.30;99.90
47791;DHT22;33547;49.044;1.156;2023-08-08T04:02:00;15.20;99.90
47791;DHT22;33547;49.044;1.156;2023-08-08T04:04:25;15.20;99.90
47791;DHT22;33547;49.044;1.156;2023-08-08T04:06:51;15.10;99.90
47791;DHT22;33547;49.044;1.156;2023-08-08T04:09:17;15.00;99.90
47791;DHT22;33547;49.044;1.156;2023-08-08T04:11:42;14.90;99.90
47791;DHT22;33547;49.044;1.156;2023-08-08T04:14:08;14.80;99.90
47791;DHT22;33547;49.044;1.156;2023-08-08T04:16:33;14.80;99.90
47791;DHT22;33547;49.044;1.156;2023-08-08T04:18:59;14.70;99.90
47791;DHT22;33547;49.044;1.156;2023-08-08T04:21:25;14.70;99.90
47791;DHT22;33547;49.044;1.156;2023-08-08T04:23:52;14.70;99.90
47791;DHT22;33547;49.044;1.156;2023-08-08T04:26:18;14.60;99.90
47791;DHT22;33547;49.044;1.156;2023-08-08T04:28:44;14.60;99.90
47791;DHT22;33547;49.044;1.156;2023-08-08T04:31:09;14.60;99.90
47791;DHT22;33547;49.044;1.156;2023-08-08T04:33:35;14.50;99.90
47791;DHT22;33547;49.044;1.156;2023-08-08T04:36:00;14.50;99.90
47791;DHT22;33547;49.044;1.156;2023-08-08T04:38:26;14.40;99.90
47791;DHT22;33547;49.044;1.156;2023-08-08T04:40:52;14.40;99.90
47791;DHT22;33547;49.044;1.156;2023-08-08T04:43:17;14.50;99.90
47791;DHT22;33547;49.044;1.156;2023-08-08T04:45:43;14.40;99.90
47791;DHT22;33547;49.044;1.156;2023-08-08T04:48:08;14.40;99.90
47791;DHT22;33547;49.044;1.156;2023-08-08T04:50:34;14.50;99.90
47791;DHT22;33547;49.044;1.156;2023-08-08T04:53:00;14.60;99.90
47791;DHT22;33547;49.044;1.156;2023-08-08T04:55:25;14.70;99.90
47791;DHT22;33547;49.044;1.156;2023-08-08T04:57:51;14.70;99.90
47791;DHT22;33547;49.044;1.156;2023-08-08T05:00:17;14.60;99.90
47791;DHT22;33547;49.044;1.156;2023-08-08T05:02:43;14.70;99.90
47791;DHT22;33547;49.044;1.156;2023-08-08T05:05:08;14.60;99.90
47791;DHT22;33547;49.044;1.156;2023-08-08T05:07:34;14.60;99.90
47791;DHT22;33547;49.044;1.156;2023-08-08T05:10:03;14.70;99.90
47791;DHT22;33547;49.044;1.156;2023-08-08T05:12:29;14.70;99.90
47791;DHT22;33547;49.044;1.156;2023-08-08T05:14:55;14.70;99.90
47791;DHT22;33547;49.044;1.156;2023-08-08T05:17:20;14.70;99.90
47791;DHT22;33547;49.044;1.156;2023-08-08T05:19:46;14.90;99.90
47791;DHT22;33547;49.044;1.156;2023-08-08T05:22:12;14.90;99.90
47791;DHT22;33547;49.044;1.156;2023-08-08T05:24:37;15.00;99.90
47791;DHT22;33547;49.044;1.156;2023-08-08T05:27:03;15.00;99.90
47791;DHT22;33547;49.044;1.156;2023-08-08T05:29:29;15.00;99.90
47791;DHT22;33547;49.044;1.156;2023-08-08T05:31:55;15.10;99.90
47791;DHT22;33547;49.044;1.156;2023-08-08T05:34:23;15.20;99.90
47791;DHT22;33547;49.044;1.156;2023-08-08T05:36:49;15.30;99.90
47791;DHT22;33547;49.044;1.156;2023-08-08T05:39:14;15.40;99.90
47791;DHT22;33547;49.044;1.156;2023-08-08T05:41:40;15.50;99.90
47791;DHT22;33547;49.044;1.156;2023-08-08T05:44:06;15.50;99.90
47791;DHT22;33547;49.044;1.156;2023-08-08T05:46:31;15.60;99.90
47791;DHT22;33547;49.044;1.156;2023-08-08T05:48:57;15.60;99.90
47791;DHT22;33547;49.044;1.156;2023-08-08T05:51:22;15.70;99.90
47791;DHT22;33547;49.044;1.156;2023-08-08T05:53:48;15.80;99.90
47791;DHT22;33547;49.044;1.156;2023-08-08T05:56:14;15.90;99.90
47791;DHT22;33547;49.044;1.156;2023-08-08T05:58:39;16.00;99.90
47791;DHT22;33547;49.044;1.156;2023-08-08T06:01:05;16.00;99.90
47791;DHT22;33547;49.044;1.156;2023-08-08T06:03:35;16.10;99.90
47791;DHT22;33547;49.044;1.156;2023-08-08T06:06:03;16.20;99.90
47791;DHT22;33547;49.044;1.156;2023-08-08T06:08:29;16.30;99.90
47791;DHT22;33547;49.044;1.156;2023-08-08T06:10:54;16.50;99.90
47791;DHT22;33547;49.044;1.156;2023-08-08T06:13:20;16.60;99.90
47791;DHT22;33547;49.044;1.156;2023-08-08T06:15:46;16.70;99.90
47791;DHT22;33547;49.044;1.156;2023-08-08T06:18:11;16.90;99.90
47791;DHT22;33547;49.044;1.156;2023-08-08T06:20:37;16.90;99.90
47791;DHT22;33547;49.044;1.156;2023-08-08T06:23:03;17.00;99.90
47791;DHT22;33547;49.044;1.156;2023-08-08T06:25:28;17.20;99.90
47791;DHT22;33547;49.044;1.156;2023-08-08T06:27:54;17.50;99.90
47791;DHT22;33547;49.044;1.156;2023-08-08T06:30:20;17.80;99.90
47791;DHT22;33547;49.044;1.156;2023-08-08T06:32:45;17.90;99.90
47791;DHT22;33547;49.044;1.156;2023-08-08T06:35:11;17.90;99.90
47791;DHT22;33547;49.044;1.156;2023-08-08T06:37:36;18.10;99.90
47791;DHT22;33547;49.044;1.156;2023-08-08T06:40:02;18.20;99.90
47791;DHT22;33547;49.044;1.156;2023-08-08T06:42:28;18.20;99.90
47791;DHT22;33547;49.044;1.156;2023-08-08T06:44:54;18.30;99.90
47791;DHT22;33547;49.044;1.156;2023-08-08T06:47:19;18.60;99.90
47791;DHT22;33547;49.044;1.156;2023-08-08T06:49:45;18.60;99.90
47791;DHT22;33547;49.044;1.156;2023-08-08T06:52:10;18.80;99.90
47791;DHT22;33547;49.044;1.156;2023-08-08T06:54:36;19.00;99.90
47791;DHT22;33547;49.044;1.156;2023-08-08T06:57:02;19.30;99.90
47791;DHT22;33547;49.044;1.156;2023-08-08T06:59:28;19.10;99.90
47791;DHT22;33547;49.044;1.156;2023-08-08T07:01:53;19.20;99.90
47791;DHT22;33547;49.044;1.156;2023-08-08T07:04:19;19.20;99.90
47791;DHT22;33547;49.044;1.156;2023-08-08T07:06:45;19.70;99.90
47791;DHT22;33547;49.044;1.156;2023-08-08T07:09:11;19.90;99.90
47791;DHT22;33547;49.044;1.156;2023-08-08T07:11:37;20.20;99.90
47791;DHT22;33547;49.044;1.156;2023-08-08T07:14:03;20.40;99.90
47791;DHT22;33547;49.044;1.156;2023-08-08T07:16:28;20.60;99.90
47791;DHT22;33547;49.044;1.156;2023-08-08T07:18:54;21.00;99.90
47791;DHT22;33547;49.044;1.156;2023-08-08T07:21:20;21.30;99.90
47791;DHT22;33547;49.044;1.156;2023-08-08T07:23:45;21.20;99.90
47791;DHT22;33547;49.044;1.156;2023-08-08T07:26:11;20.70;99.90
47791;DHT22;33547;49.044;1.156;2023-08-08T07:28:37;20.80;99.90
47791;DHT22;33547;49.044;1.156;2023-08-08T07:31:03;20.40;99.90
47791;DHT22;33547;49.044;1.156;2023-08-08T07:33:28;20.40;99.90
47791;DHT22;33547;49.044;1.156;2023-08-08T07:35:54;20.30;99.90
47791;DHT22;33547;49.044;1.156;2023-08-08T07:38:20;20.30;99.90
47791;DHT22;33547;49.044;1.156;2023-08-08T07:40:45;20.40;99.90
47791;DHT22;33547;49.044;1.156;2023-08-08T07:43:11;20.30;99.90
47791;DHT22;33547;49.044;1.156;2023-08-08T07:45:37;20.10;99.90
47791;DHT22;33547;49.044;1.156;2023-08-08T07:48:03;20.40;99.90
47791;DHT22;33547;49.044;1.156;2023-08-08T07:50:29;20.90;99.90
47791;DHT22;33547;49.044;1.156;2023-08-08T07:52:55;21.00;99.90
47791;DHT22;33547;49.044;1.156;2023-08-08T07:55:20;21.40;99.90
47791;DHT22;33547;49.044;1.156;2023-08-08T07:57:46;21.90;99.90
47791;DHT22;33547;49.044;1.156;2023-08-08T08:00:12;22.10;99.90
47791;DHT22;33547;49.044;1.156;2023-08-08T08:02:42;22.20;99.90
47791;DHT22;33547;49.044;1.156;2023-08-08T08:05:08;22.50;99.90
47791;DHT22;33547;49.044;1.156;2023-08-08T08:07:35;22.80;99.90
47791;DHT22;33547;49.044;1.156;2023-08-08T08:10:06;23.20;99.90
47791;DHT22;33547;49.044;1.156;2023-08-08T08:12:32;23.10;99.90
47791;DHT22;33547;49.044;1.156;2023-08-08T08:14:59;23.50;99.90
47791;DHT22;33547;49.044;1.156;2023-08-08T08:17:25;23.50;99.90
47791;DHT22;33547;49.044;1.156;2023-08-08T08:19:51;24.20;99.90
47791;DHT22;33547;49.044;1.156;2023-08-08T08:22:17;25.20;99.90
47791;DHT22;33547;49.044;1.156;2023-08-08T08:24:42;25.10;99.90
47791;DHT22;33547;49.044;1.156;2023-08-08T08:27:08;26.00;99.90
47791;DHT22;33547;49.044;1.156;2023-08-08T08:29:34;26.30;99.90
47791;DHT22;33547;49.044;1.156;2023-08-08T08:32:00;26.30;99.70
47791;DHT22;33547;49.044;1.156;2023-08-08T08:34:25;26.80;99.60
47791;DHT22;33547;49.044;1.156;2023-08-08T08:36:51;27.50;99.30
47791;DHT22;33547;49.044;1.156;2023-08-08T08:39:16;27.50;97.50
47791;DHT22;33547;49.044;1.156;2023-08-08T08:41:47;28.10;98.10
47791;DHT22;33547;49.044;1.156;2023-08-08T08:44:16;28.30;98.30
47791;DHT22;33547;49.044;1.156;2023-08-08T08:46:42;27.20;97.50
47791;DHT22;33547;49.044;1.156;2023-08-08T08:49:09;27.80;97.80
47791;DHT22;33547;49.044;1.156;2023-08-08T08:51:36;28.50;98.00
47791;DHT22;33547;49.044;1.156;2023-08-08T08:54:03;28.90;96.00
47791;DHT22;33547;49.044;1.156;2023-08-08T08:56:28;28.70;96.80
47791;DHT22;33547;49.044;1.156;2023-08-08T08:58:55;29.40;96.50
47791;DHT22;33547;49.044;1.156;2023-08-08T09:01:21;27.50;95.90
47791;DHT22;33547;49.044;1.156;2023-08-08T09:03:48;27.00;97.50
47791;DHT22;33547;49.044;1.156;2023-08-08T09:06:14;27.60;96.70
47791;DHT22;33547;49.044;1.156;2023-08-08T09:08:41;26.50;97.20
47791;DHT22;33547;49.044;1.156;2023-08-08T09:11:07;27.00;97.50
47791;DHT22;33547;49.044;1.156;2023-08-08T09:13:40;26.20;97.10
47791;DHT22;33547;49.044;1.156;2023-08-08T09:16:09;25.20;97.30
47791;DHT22;33547;49.044;1.156;2023-08-08T09:18:35;26.00;98.10
47791;DHT22;33547;49.044;1.156;2023-08-08T09:21:06;26.60;97.50
47791;DHT22;33547;49.044;1.156;2023-08-08T09:23:32;26.20;97.20
47791;DHT22;33547;49.044;1.156;2023-08-08T09:25:58;26.80;97.60
47791;DHT22;33547;49.044;1.156;2023-08-08T09:28:24;26.10;97.30
47791;DHT22;33547;49.044;1.156;2023-08-08T09:30:50;25.60;97.70
47791;DHT22;33547;49.044;1.156;2023-08-08T09:33:17;25.90;98.60
47791;DHT22;33547;49.044;1.156;2023-08-08T09:35:43;25.10;98.00
47791;DHT22;33547;49.044;1.156;2023-08-08T09:38:08;25.40;98.20
47791;DHT22;33547;49.044;1.156;2023-08-08T09:40:34;25.90;98.00
47791;DHT22;33547;49.044;1.156;2023-08-08T09:43:00;26.30;97.20
47791;DHT22;33547;49.044;1.156;2023-08-08T09:45:26;25.90;96.60
47791;DHT22;33547;49.044;1.156;2023-08-08T09:47:51;26.50;96.70
47791;DHT22;33547;49.044;1.156;2023-08-08T09:50:20;27.80;96.20
47791;DHT22;33547;49.044;1.156;2023-08-08T09:52:46;28.10;96.10
47791;DHT22;33547;49.044;1.156;2023-08-08T09:55:13;28.30;95.30
47791;DHT22;33547;49.044;1.156;2023-08-08T09:57:39;28.20;95.80
47791;DHT22;33547;49.044;1.156;2023-08-08T10:00:06;29.70;95.70
47791;DHT22;33547;49.044;1.156;2023-08-08T10:02:37;30.60;94.70
47791;DHT22;33547;49.044;1.156;2023-08-08T10:05:05;30.50;93.50
47791;DHT22;33547;49.044;1.156;2023-08-08T10:07:31;28.20;94.70
47791;DHT22;33547;49.044;1.156;2023-08-08T10:09:57;29.00;94.70
47791;DHT22;33547;49.044;1.156;2023-08-08T10:12:25;29.20;93.90
47791;DHT22;33547;49.044;1.156;2023-08-08T10:14:52;28.60;93.90
47791;DHT22;33547;49.044;1.156;2023-08-08T10:17:18;29.60;94.00
47791;DHT22;33547;49.044;1.156;2023-08-08T10:19:56;30.10;93.50
47791;DHT22;33547;49.044;1.156;2023-08-08T10:22:24;31.00;93.10
47791;DHT22;33547;49.044;1.156;2023-08-08T10:24:53;30.90;91.90
47791;DHT22;33547;49.044;1.156;2023-08-08T10:27:32;29.80;90.80
47791;DHT22;33547;49.044;1.156;2023-08-08T10:30:05;29.80;91.30
47791;DHT22;33547;49.044;1.156;2023-08-08T10:32:45;30.30;90.90
47791;DHT22;33547;49.044;1.156;2023-08-08T10:35:14;31.10;88.90
47791;DHT22;33547;49.044;1.156;2023-08-08T10:37:40;31.50;90.50
47791;DHT22;33547;49.044;1.156;2023-08-08T10:40:19;32.20;89.00
47791;DHT22;33547;49.044;1.156;2023-08-08T10:42:46;31.90;88.70
47791;DHT22;33547;49.044;1.156;2023-08-08T10:45:13;31.90;88.70
47791;DHT22;33547;49.044;1.156;2023-08-08T10:47:40;31.10;89.00
47791;DHT22;33547;49.044;1.156;2023-08-08T10:50:08;30.90;87.90
47791;DHT22;33547;49.044;1.156;2023-08-08T10:55:24;30.90;86.60
47791;DHT22;33547;49.044;1.156;2023-08-08T10:58:17;31.50;85.30
47791;DHT22;33547;49.044;1.156;2023-08-08T11:00:45;31.90;84.00
47791;DHT22;33547;49.044;1.156;2023-08-08T11:03:11;32.00;84.00
47791;DHT22;33547;49.044;1.156;2023-08-08T11:05:37;31.10;86.90
47791;DHT22;33547;49.044;1.156;2023-08-08T11:08:05;31.80;82.90
47791;DHT22;33547;49.044;1.156;2023-08-08T11:10:38;31.80;83.00
47791;DHT22;33547;49.044;1.156;2023-08-08T11:13:06;31.90;81.80
47791;DHT22;33547;49.044;1.156;2023-08-08T11:15:33;30.60;83.30
47791;DHT22;33547;49.044;1.156;2023-08-08T11:18:00;30.60;84.50
47791;DHT22;33547;49.044;1.156;2023-08-08T11:20:30;31.40;84.80
47791;DHT22;33547;49.044;1.156;2023-08-08T11:22:57;32.10;81.20
47791;DHT22;33547;49.044;1.156;2023-08-08T11:25:26;32.10;79.10
47791;DHT22;33547;49.044;1.156;2023-08-08T11:27:52;32.30;80.70
47791;DHT22;33547;49.044;1.156;2023-08-08T11:30:19;31.60;81.60
47791;DHT22;33547;49.044;1.156;2023-08-08T11:32:47;31.70;81.70
47791;DHT22;33547;49.044;1.156;2023-08-08T11:35:21;31.10;81.70
47791;DHT22;33547;49.044;1.156;2023-08-08T11:37:47;31.30;82.10
47791;DHT22;33547;49.044;1.156;2023-08-08T11:40:14;30.80;81.90
47791;DHT22;33547;49.044;1.156;2023-08-08T11:42:40;30.90;83.20
47791;DHT22;33547;49.044;1.156;2023-08-08T11:45:11;30.80;84.90
47791;DHT22;33547;49.044;1.156;2023-08-08T11:47:38;30.50;84.00
47791;DHT22;33547;49.044;1.156;2023-08-08T11:50:05;30.30;85.40
47791;DHT22;33547;49.044;1.156;2023-08-08T11:52:32;29.90;84.10
47791;DHT22;33547;49.044;1.156;2023-08-08T11:55:01;28.70;87.30
47791;DHT22;33547;49.044;1.156;2023-08-08T11:57:31;27.90;86.90
47791;DHT22;33547;49.044;1.156;2023-08-08T11:59:57;27.60;86.90
47791;DHT22;33547;49.044;1.156;2023-08-08T12:02:23;28.10;86.80
47791;DHT22;33547;49.044;1.156;2023-08-08T12:04:49;28.50;86.90
47791;DHT22;33547;49.044;1.156;2023-08-08T12:07:17;28.40;86.60
47791;DHT22;33547;49.044;1.156;2023-08-08T12:09:42;28.70;86.80
47791;DHT22;33547;49.044;1.156;2023-08-08T12:12:08;28.40;89.70
47791;DHT22;33547;49.044;1.156;2023-08-08T12:14:43;28.00;88.70
47791;DHT22;33547;49.044;1.156;2023-08-08T12:17:10;27.90;88.60
47791;DHT22;33547;49.044;1.156;2023-08-08T12:19:35;28.20;87.70
47791;DHT22;33547;49.044;1.156;2023-08-08T12:22:01;28.00;85.60
47791;DHT22;33547;49.044;1.156;2023-08-08T12:24:27;27.80;88.40
47791;DHT22;33547;49.044;1.156;2023-08-08T12:26:52;27.90;87.20
47791;DHT22;33547;49.044;1.156;2023-08-08T12:29:18;27.10;86.80
47791;DHT22;33547;49.044;1.156;2023-08-08T12:31:43;27.10;89.90
47791;DHT22;33547;49.044;1.156;2023-08-08T12:34:09;27.20;90.20
47791;DHT22;33547;49.044;1.156;2023-08-08T12:36:35;27.10;90.10
47791;DHT22;33547;49.044;1.156;2023-08-08T12:39:01;27.10;91.70
47791;DHT22;33547;49.044;1.156;2023-08-08T12:41:27;26.90;90.20
47791;DHT22;33547;49.044;1.156;2023-08-08T12:43:54;27.00;88.90
47791;DHT22;33547;49.044;1.156;2023-08-08T12:46:20;27.20;90.40
47791;DHT22;33547;49.044;1.156;2023-08-08T12:48:46;26.90;89.70
47791;DHT22;33547;49.044;1.156;2023-08-08T12:51:11;27.20;90.10
47791;DHT22;33547;49.044;1.156;2023-08-08T12:53:37;27.20;90.40
47791;DHT22;33547;49.044;1.156;2023-08-08T12:56:03;27.20;89.90
47791;DHT22;33547;49.044;1.156;2023-08-08T12:58:29;27.00;90.00
47791;DHT22;33547;49.044;1.156;2023-08-08T13:00:55;27.00;90.50
47791;DHT22;33547;49.044;1.156;2023-08-08T13:03:20;27.10;89.90
47791;DHT22;33547;49.044;1.156;2023-08-08T13:05:46;27.10;90.20
47791;DHT22;33547;49.044;1.156;2023-08-08T13:08:12;27.00;91.60
47791;DHT22;33547;49.044;1.156;2023-08-08T13:10:39;26.80;91.90
47791;DHT22;33547;49.044;1.156;2023-08-08T13:13:05;26.70;91.20
47791;DHT22;33547;49.044;1.156;2023-08-08T13:15:31;26.40;90.40
47791;DHT22;33547;49.044;1.156;2023-08-08T13:17:57;25.90;89.50
47791;DHT22;33547;49.044;1.156;2023-08-08T13:20:22;26.30;91.10
47791;DHT22;33547;49.044;1.156;2023-08-08T13:22:48;26.50;92.30
47791;DHT22;33547;49.044;1.156;2023-08-08T13:25:13;26.40;91.10
47791;DHT22;33547;49.044;1.156;2023-08-08T13:27:39;26.30;92.00
47791;DHT22;33547;49.044;1.156;2023-08-08T13:30:05;26.40;92.10
47791;DHT22;33547;49.044;1.156;2023-08-08T13:32:31;26.20;91.00
47791;DHT22;33547;49.044;1.156;2023-08-08T13:34:57;26.50;91.30
47791;DHT22;33547;49.044;1.156;2023-08-08T13:37:23;26.80;90.80
47791;DHT22;33547;49.044;1.156;2023-08-08T13:39:48;26.70;91.90
47791;DHT22;33547;49.044;1.156;2023-08-08T13:42:14;26.60;90.70
47791;DHT22;33547;49.044;1.156;2023-08-08T13:44:39;26.50;92.70
47791;DHT22;33547;49.044;1.156;2023-08-08T13:47:05;26.20;91.30
47791;DHT22;33547;49.044;1.156;2023-08-08T13:49:31;26.50;91.20
47791;DHT22;33547;49.044;1.156;2023-08-08T13:51:57;26.50;91.00
47791;DHT22;33547;49.044;1.156;2023-08-08T13:54:22;26.30;91.20
47791;DHT22;33547;49.044;1.156;2023-08-08T13:56:48;26.40;91.20
47791;DHT22;33547;49.044;1.156;2023-08-08T13:59:13;26.30;92.30
47791;DHT22;33547;49.044;1.156;2023-08-08T14:01:39;26.10;92.30
47791;DHT22;33547;49.044;1.156;2023-08-08T14:04:05;26.10;92.30
47791;DHT22;33547;49.044;1.156;2023-08-08T14:06:31;25.90;91.80
47791;DHT22;33547;49.044;1.156;2023-08-08T14:08:57;26.20;92.70
47791;DHT22;33547;49.044;1.156;2023-08-08T14:11:22;26.00;91.40
47791;DHT22;33547;49.044;1.156;2023-08-08T14:13:48;25.90;91.70
47791;DHT22;33547;49.044;1.156;2023-08-08T14:16:14;25.60;91.20
47791;DHT22;33547;49.044;1.156;2023-08-08T14:18:40;25.80;91.60
47791;DHT22;33547;49.044;1.156;2023-08-08T14:21:05;26.00;91.40
47791;DHT22;33547;49.044;1.156;2023-08-08T14:23:31;26.10;92.00
47791;DHT22;33547;49.044;1.156;2023-08-08T14:25:57;26.00;91.60
47791;DHT22;33547;49.044;1.156;2023-08-08T14:28:23;25.90;92.70
47791;DHT22;33547;49.044;1.156;2023-08-08T14:30:48;26.10;92.10
47791;DHT22;33547;49.044;1.156;2023-08-08T14:33:15;26.10;92.50
47791;DHT22;33547;49.044;1.156;2023-08-08T14:35:41;25.90;92.80
47791;DHT22;33547;49.044;1.156;2023-08-08T14:38:07;25.80;92.30
47791;DHT22;33547;49.044;1.156;2023-08-08T14:40:32;25.90;92.50
47791;DHT22;33547;49.044;1.156;2023-08-08T14:43:00;25.90;92.80
47791;DHT22;33547;49.044;1.156;2023-08-08T14:45:26;25.90;92.50
47791;DHT22;33547;49.044;1.156;2023-08-08T14:47:52;25.80;92.20
47791;DHT22;33547;49.044;1.156;2023-08-08T14:50:17;25.50;92.20
47791;DHT22;33547;49.044;1.156;2023-08-08T14:52:43;25.40;92.70
47791;DHT22;33547;49.044;1.156;2023-08-08T14:55:09;25.40;92.80
47791;DHT22;33547;49.044;1.156;2023-08-08T14:57:34;25.50;94.30
47791;DHT22;33547;49.044;1.156;2023-08-08T15:00:00;25.70;93.70
47791;DHT22;33547;49.044;1.156;2023-08-08T15:02:26;25.60;94.00
47791;DHT22;33547;49.044;1.156;2023-08-08T15:04:52;25.60;93.40
47791;DHT22;33547;49.044;1.156;2023-08-08T15:07:18;25.50;93.70
47791;DHT22;33547;49.044;1.156;2023-08-08T15:09:44;25.60;92.00
47791;DHT22;33547;49.044;1.156;2023-08-08T15:12:10;25.60;93.50
47791;DHT22;33547;49.044;1.156;2023-08-08T15:14:35;25.70;93.80
47791;DHT22;33547;49.044;1.156;2023-08-08T15:17:01;25.60;93.00
47791;DHT22;33547;49.044;1.156;2023-08-08T15:19:27;25.60;93.50
47791;DHT22;33547;49.044;1.156;2023-08-08T15:21:54;25.50;93.80
47791;DHT22;33547;49.044;1.156;2023-08-08T15:24:19;25.50;93.10
47791;DHT22;33547;49.044;1.156;2023-08-08T15:26:45;25.60;94.10
47791;DHT22;33547;49.044;1.156;2023-08-08T15:29:10;25.60;93.40
47791;DHT22;33547;49.044;1.156;2023-08-08T15:31:36;25.90;93.20